Logo AVAMET
Benvolgut visitant, si us plau, ingressa Recuperar contrasenya
AVAMET paisatges

Montserrat Casadalt

Dades diàries. Acumulats / Últims 30 dies disponibles

Data Temperatura (°C) Humitat rel. (%) Pressió rel. (hPa) Vent (km/h) Precipitació
Mínima Mitjana Màxima Amplitud
tèrmica
Mínima Mitjana Màxima Mínima Mitjana Màxima Predom. Mitjana Ràfega
màxima
Total
(mm)
Índex-n
Mínima Mitjana Màxima Mínima Mitjana Màxima n
0 a 1
P0 max
mm 5'
Dades mensuals acumulades fins l'últim dia disponible
06/2020 16,1 16,7 17,3 22,3 26,9 28,8 32,3 16,2 24 64 90 1.000 1.011 1.015   4,7 40,2 0,0
Dades anuals acumulades fins l'últim dia disponible
2020 3,1 10,8 19,2 14,5 7,2 19,8 32,6 29,5 17 70 99 997 1.018 1.033   8,3 98,2 472,4
Últims 30 dies disponibles
03-06-2020 16,1     23,9     32,3 16,2 24 60 90 1.000 1.006 1.012 SSE 6,4 40,2 0,0
02-06-2020 16,7     21,6     26,9 10,2 37 65 86 1.011 1.013 1.015 ESE 2,9 27,4 0,0
01-06-2020 17,3     21,5     27,1 9,8 39 66 81 1.012 1.013 1.015 SE 4,8 33,8 0,0
31-05-2020 15,7     20,8     27,2 11,5 35 66 82 1.009 1.012 1.014 S 3,5 33,8 0,0
30-05-2020 16,7     20,8     26,1 9,4 33 60 78 1.011 1.013 1.015 SE 3,7 35,4 0,0
29-05-2020 15,5     21,9     29,8 14,3 22 53 84 1.011 1.015 1.020 SSE 5,1 37,0 0,0
28-05-2020 16,7     20,3     25,4 8,7 27 68 92 1.019 1.022 1.025 ESE 2,4 25,7 0,0
27-05-2020 16,9     21,1     26,6 9,7 31 61 85 1.022 1.023 1.025 ESE 4,8 38,6 0,0
26-05-2020 16,3     20,4     25,8 9,5 38 68 86 1.022 1.024 1.025 ESE 1,8 32,2 0,0
25-05-2020 15,1     19,6     24,4 9,3 45 67 85 1.022 1.024 1.025 SSE 0,8 24,1 0,0
24-05-2020 17,9     20,2     23,5 5,6 61 75 92 1.024 1.025 1.026 NE 5,1 27,4 0,0
23-05-2020 17,8     22,5     27,8 10,0 39 58 72 1.021 1.022 1.024 W 3,2 25,7 0,0
22-05-2020 19,2     23,6     30,1 10,9 34 53 71 1.018 1.020 1.023 W 7,9 25,7 0,0
21-05-2020 17,3     23,2     31,2 13,9 27 50 83 1.015 1.017 1.019 SE 5,1 29,0 0,0
20-05-2020 18,1     23,2     29,2 11,1 33 50 83 1.012 1.013 1.015 ESE 5,6 27,4 0,0
19-05-2020 16,1     22,6     29,6 13,5 31 48 66 1.013 1.015 1.019 W 8,2 27,4 0,0
18-05-2020 14,8     20,0     25,8 11,0 41 61 77 1.016 1.018 1.020 N 8,2 30,6 0,0
17-05-2020 13,8     18,3     23,6 9,8 42 68 90 1.017 1.018 1.020 N 4,2 25,7 0,6
16-05-2020 14,4     16,5     21,3 6,9 58 76 93 1.013 1.015 1.017 N 5,0 30,6 0,0
15-05-2020 12,2     15,5     19,4 7,2 56 75 94 1.008 1.011 1.014 W 6,9 29,0 0,6
14-05-2020 11,4     14,8     17,6 6,2 56 76 93 1.001 1.003 1.008 N 11,4 53,1 14,4
13-05-2020 12,5     18,4     24,9 12,4 32 57 80 1.002 1.004 1.005 W 10,9 43,5 0,0
12-05-2020 14,5     17,7     21,6 7,1 50 68 91 1.005 1.007 1.009 N 8,2 38,6 1,0
11-05-2020 14,5     19,7     26,1 11,6 31 52 71 1.004 1.006 1.009 W 18,3 54,7 0,0
10-05-2020 13,8     18,3     24,4 10,6 29 67 96 1.002 1.003 1.007 W 12,4 59,5 5,6
09-05-2020 15,3     18,4     23,6 8,3 59 81 93 1.007 1.010 1.014 SE 3,9 27,4 0,2
08-05-2020 15,5     18,4     22,3 6,8 57 73 92 1.012 1.015 1.017 ESE 3,9 38,6 0,0
07-05-2020 15,4     19,8     24,7 9,3 40 69 94 1.015 1.016 1.018 ESE 3,5 27,4 0,2
06-05-2020 16,8     21,0     26,9 10,1 43 63 91 1.013 1.014 1.016 SE 3,5 29,0 0,0
05-05-2020 16,1     21,1     29,2 13,1 35 64 91 1.011 1.012 1.014 W 4,5 25,7 0,0
Últims 13 mesos disponibles
05/2020 11,4 15,7 19,2 20,2 17,6 25,9 32,6 21,2 46 63 81 1.003 1.015 1.025 W 6,4 59,5 22,6
04/2020 7,5 11,4 15,4 14,7 14,1 19,7 25,9 18,4 45 76 97 1.004 1.014 1.024 N 5,6 51,5 68,8
03/2020 5,6 9,6 15,3 12,8 8,8 17,3 26,3 20,7 40 70 97 1.004 1.015 1.025 N 10,1 98,2 86,8
02/2020 6,0 9,7 13,0 13,8 11,9 20,3 26,4 20,4 36 67 96 1.012 1.024 1.031 W 8,5 56,3 11,6
01/2020 3,1 6,9 12,8 10,2 7,2 15,1 20,0 16,9 46 72 98 1.015 1.024 1.031 W 11,1 80,5 282,4
12/2019 5,6 9,7 15,5 12,5 10,4 16,7 23,2 17,6 50 70 98 1.000 1.017 1.031 W 12,4 98,2 85,8
11/2019 4,4 10,4 18,7 14,0 14,8 19,1 28,6 24,2 40 56 76 996 1.009 1.017 W 13,1 78,9 8,2
10/2019 9,9 15,2 18,9 19,2 14,3 25,2 34,6 24,7 36 65 87 1.006 1.014 1.020 W 6,3 54,7 28,4
09/2019 13,8 18,9 21,9 22,5 19,2 27,4 33,6 19,8 30 70 87 1.008 1.015 1.023 W 7,1 69,2 90,8
08/2019 16,9 21,1 25,1 25,6 26,3 31,6 41,7 24,8 34 65 79 1.008 1.013 1.018 ESE 7,4 51,5 10,6
07/2019 19,9 21,4 23,4 26,0 27,0 31,8 37,6 17,7 39 61 77 1.003 1.012 1.019 SE 6,8 54,7 9,4
06/2019 12,5 17,1 23,2 22,1 22,2 28,1 36,9 24,4 32 58 76 1.006 1.013 1.020 ESE 7,5 66,0 0,0
05/2019 8,2 13,4 18,4 17,9 18,0 23,5 31,8 23,6 45 63 87 1.003 1.013 1.022 N 7,2 61,2 14,0
Tots els anys disponibles
2019 1,6 13,4 25,1 17,6 10,4 23,2 41,7 40,1 30 61 99 993 1.015 1.032 W 8,9 98,2 452,4
2018 1,1 13,5 25,3 17,4 7,4 22,8 38,0 36,9 37 70 99 998 1.016 1.029 W 10,2 86,9 734,0
2017 -0,7 13,5 25,3 17,6 6,6 23,1 38,0 38,7 9,1 85,3 336,2
2016 1,8 13,8 27,1 17,7 9,6 22,9 39,6 37,8 9,8 83,7 541,0
2015 0,7 13,6 21,1 17,6 21,0 22,9 41,8 41,1 6,2 83,7 468,4
2014 1,3 13,8 23,5 17,8 8,8 23,2 41,1 39,8 7,6 82,1 324,0
2013 1,2 12,9 16,8 16,8 18,7 22,2 36,1 34,9 8,4 78,9 337,8
2012 -2,3 13,0 18,1 17,1 21,4 22,5 37,2 39,5 7,2 82,1 431,2
2011 -1,1 13,5 22,8 17,1 6,6 22,2 39,0 40,1 8,4 83,7 426,0
2010 -1,8 12,4 26,2 16,3 3,7 21,4 42,0 43,8 9,2 109,4 559,4
2009 -2,2 13,2 23,7 17,1 4,6 22,5 41,7 43,9 9,7 99,8 807,4
2008 1,6 12,5 17,1 21,7 37,0 35,4 10,6 74,0 733,8
2007 2,1 13,0 17,4 21,7 37,6 35,5 42 67 88 1.027 1.027 1.027 2,3 37,0 698,8
2006 -3,2 13,4 17,8 22,2 35,6 38,8 48 70 97 3,1 45,0 531,7
2005 -4,9 12,1 16,6 21,1 36,5 41,4 357,2
Temperatura (°C)
Humitat relativa (%)
Velocitat del vent i ràfega màxima (km/h)
Direcció del vent (°)
Pressió (hPa)
Precipitació (mm)
Nota sobre les dades: s'avisa a l'usuari de la provisionalitat i no oficialitat d'aquestes dades
Logo AVAMET blanc
Web allotjada a Sollutia
Llicència de Creative CommonsLa web d'AVAMET i els seus continguts estan subjectes a una llicència de
Reconeixement - No Comercial - Compartir igual
Últimes estacions: Biar - IES Biar (Soci), Xodos - la Vega (Soci), la Vall d'Alba - Centre (Ajuntament soci), Chera (Ajuntament soci) - - -